createdAt,value
2022-09-12T00:04:10.011Z,1012.8
2022-09-12T00:10:26.096Z,1012.9
2022-09-12T00:14:24.369Z,1012.8
2022-09-12T00:19:16.705Z,1012.7
2022-09-12T00:24:32.215Z,1012.8
2022-09-12T00:36:18.555Z,1012.7
2022-09-12T00:41:25.932Z,1012.7
2022-09-12T00:46:32.546Z,1012.6
2022-09-12T00:51:29.045Z,1012.6
2022-09-12T01:01:51.245Z,1012.5
2022-09-12T01:06:58.424Z,1012.5
2022-09-12T01:11:54.753Z,1012.4
2022-09-12T01:17:39.209Z,1012.4
2022-09-12T01:22:07.527Z,1012.4
2022-09-12T01:27:13.871Z,1012.4
2022-09-12T01:32:20.304Z,1012.4
2022-09-12T01:37:56.801Z,1012.4
2022-09-12T01:42:43.130Z,1012.4
2022-09-12T01:47:49.571Z,1012.3
2022-09-12T01:52:45.933Z,1012.2
2022-09-12T01:58:06.346Z,1012.2
2022-09-12T02:03:08.687Z,1012.2
2022-09-12T02:08:05.057Z,1012.1
2022-09-12T02:13:21.495Z,1012.1
2022-09-12T02:18:27.862Z,1012.1
2022-09-12T02:23:34.312Z,1012.1
2022-09-12T02:29:04.767Z,1012.1
2022-09-12T02:33:47.087Z,1012.1
2022-09-12T02:38:53.475Z,1012.0
2022-09-12T02:43:59.857Z,1012.0
2022-09-12T02:49:08.817Z,1012.0
2022-09-12T02:54:12.620Z,1012.0
2022-09-12T02:59:23.008Z,1012.0
2022-09-12T03:04:25.428Z,1011.9
2022-09-12T03:09:31.947Z,1011.9
2022-09-12T03:14:38.423Z,1011.7
2022-09-12T03:19:44.862Z,1011.8
2022-09-12T03:25:19.274Z,1011.8
2022-09-12T03:29:57.679Z,1011.8
2022-09-12T03:35:03.002Z,1011.8
2022-09-12T03:40:10.423Z,1011.7
2022-09-12T03:45:16.841Z,1011.9
2022-09-12T03:50:23.303Z,1011.7
2022-09-12T03:55:19.688Z,1011.7
2022-09-12T04:00:26.081Z,1011.7
2022-09-12T04:05:32.481Z,1011.8
2022-09-12T04:11:32.951Z,1011.7
2022-09-12T04:16:19.430Z,1011.7
2022-09-12T04:21:01.781Z,1011.6
2022-09-12T04:26:08.131Z,1011.6
2022-09-12T04:31:28.553Z,1011.6
2022-09-12T04:36:40.069Z,1011.6
2022-09-12T04:41:27.382Z,1011.7
2022-09-12T04:46:33.774Z,1011.7
2022-09-12T04:51:40.157Z,1011.6
2022-09-12T04:56:46.576Z,1011.5
2022-09-12T05:01:43.018Z,1011.6
2022-09-12T05:06:49.416Z,1011.6
2022-09-12T05:12:06.061Z,1011.6
2022-09-12T05:17:12.184Z,1011.6
2022-09-12T05:22:18.675Z,1011.5
2022-09-12T05:27:29.083Z,1011.5
2022-09-12T05:32:31.497Z,1011.5
2022-09-12T05:37:37.897Z,1011.5
2022-09-12T05:42:34.436Z,1011.5
2022-09-12T05:47:54.835Z,1011.4
2022-09-12T05:52:57.185Z,1011.6
2022-09-12T05:57:53.705Z,1011.6
2022-09-12T06:03:14.807Z,1011.6
2022-09-12T06:08:17.269Z,1011.6
2022-09-12T06:13:23.663Z,1011.5
2022-09-12T06:18:30.029Z,1011.5
2022-09-12T06:23:36.425Z,1011.6
2022-09-12T06:28:32.810Z,1011.6
2022-09-12T06:33:49.199Z,1011.6
2022-09-12T06:38:55.578Z,1011.6
2022-09-12T06:44:01.992Z,1011.6
2022-09-12T06:48:58.449Z,1011.7
2022-09-12T06:54:14.951Z,1011.6
2022-09-12T06:59:11.432Z,1011.6
2022-09-12T07:04:17.803Z,1011.6
2022-09-12T07:09:34.196Z,1011.6
2022-09-12T07:14:30.634Z,1011.5
2022-09-12T07:19:47.015Z,1011.6
2022-09-12T07:24:53.401Z,1011.5
2022-09-12T07:29:59.957Z,1011.5
2022-09-12T07:35:10.252Z,1011.5
2022-09-12T07:40:12.718Z,1011.5
2022-09-12T07:52:06.574Z,1011.5
2022-09-12T07:56:54.109Z,1011.5
2022-09-12T08:02:00.495Z,1011.4
2022-09-12T08:07:06.868Z,1011.5
2022-09-12T08:12:13.313Z,1011.5
2022-09-12T08:17:19.697Z,1011.4
2022-09-12T08:22:26.214Z,1011.5
2022-09-12T08:27:32.723Z,1011.5
2022-09-12T08:32:59.227Z,1011.5
2022-09-12T08:37:45.554Z,1011.3
2022-09-12T08:42:51.974Z,1011.3
2022-09-12T08:48:22.375Z,1011.5
2022-09-12T08:52:54.688Z,1011.4
2022-09-12T08:58:14.820Z,1011.4
2022-09-12T09:03:21.154Z,1011.4
2022-09-12T09:08:27.569Z,1011.3
2022-09-12T09:13:33.998Z,1011.3
2022-09-12T09:18:41.442Z,1011.3
2022-09-12T09:24:09.128Z,1011.2
2022-09-12T09:28:55.544Z,1011.2
2022-09-12T09:34:56.481Z,1011.1
2022-09-12T09:40:05.264Z,1011.1
2022-09-12T09:45:11.586Z,1011.0
2022-09-12T09:50:18.026Z,1011.0
2022-09-12T09:55:45.764Z,1010.9
2022-09-12T10:00:56.530Z,1010.9
2022-09-12T10:05:38.195Z,1010.6
2022-09-12T10:11:05.748Z,1010.7
2022-09-12T10:16:11.184Z,1010.5
2022-09-12T10:21:58.620Z,1010.3
2022-09-12T10:26:04.979Z,1010.2
2022-09-12T10:35:43.530Z,1010.0
2022-09-12T10:37:51.774Z,1010.1
2022-09-12T10:42:32.280Z,1009.9
2022-09-12T10:47:40.873Z,1009.8
2022-09-12T10:53:38.331Z,1009.3
2022-09-12T10:57:32.545Z,1008.4
2022-09-12T11:02:39.018Z,1008.8
2022-09-12T11:08:57.687Z,1009.0
2022-09-12T11:17:57.845Z,1009.1
2022-09-12T11:19:10.039Z,1008.9
2022-09-12T11:23:05.233Z,1009.1
2022-09-12T11:28:11.654Z,1009.0
2022-09-12T11:33:18.586Z,1009.5
2022-09-12T11:38:24.969Z,1009.3
2022-09-12T11:43:21.354Z,1009.5
2022-09-12T11:48:27.698Z,1009.3
2022-09-12T11:53:44.096Z,1009.2
2022-09-12T11:58:40.485Z,1009.3
2022-09-12T12:03:56.861Z,1009.2
2022-09-12T12:09:03.256Z,1009.2
2022-09-12T12:13:59.677Z,1008.9
2022-09-12T12:19:16.064Z,1009.2
2022-09-12T12:24:22.446Z,1009.1
2022-09-12T12:29:28.894Z,1008.9
2022-09-12T12:34:35.229Z,1009.3
2022-09-12T12:39:42.276Z,1009.4
2022-09-12T12:44:38.775Z,1009.3
2022-09-12T12:49:57.062Z,1009.1
2022-09-12T12:55:03.453Z,1009.3
2022-09-12T13:00:09.868Z,1009.1
2022-09-12T13:05:16.231Z,1009.1
2022-09-12T13:10:22.667Z,1009.2
2022-09-12T13:15:29.154Z,1009.1
2022-09-12T13:20:35.444Z,1009.2
2022-09-12T13:25:41.823Z,1009.1
2022-09-12T13:30:52.290Z,1008.4
2022-09-12T13:35:54.591Z,1009.1
2022-09-12T13:41:01.097Z,1008.9
2022-09-12T13:46:11.584Z,1008.8
2022-09-12T13:51:14.410Z,1008.6
2022-09-12T13:56:20.790Z,1008.5
2022-09-12T14:01:17.251Z,1008.5
2022-09-12T14:06:32.587Z,1008.5
2022-09-12T14:12:04.092Z,1008.2
2022-09-12T14:16:36.431Z,1008.2
2022-09-12T14:22:27.919Z,1008.1
2022-09-12T14:27:36.858Z,1008.1
2022-09-12T14:32:43.292Z,1007.8
2022-09-12T14:37:48.654Z,1007.7
2022-09-12T14:45:08.327Z,1007.5
2022-09-12T14:50:15.361Z,1007.5
2022-09-12T15:08:28.912Z,1007.5
2022-09-12T15:17:42.887Z,1007.6
2022-09-12T15:41:53.931Z,1007.4
2022-09-12T15:46:37.208Z,1007.4
2022-09-12T16:20:36.901Z,1007.1
2022-09-12T16:25:24.238Z,1007.0
2022-09-12T16:31:04.856Z,1006.9
2022-09-12T16:36:36.243Z,1007.0
2022-09-12T16:41:18.557Z,1006.8
2022-09-12T16:47:37.065Z,1006.8
2022-09-12T16:51:31.378Z,1006.7
2022-09-12T16:56:37.793Z,1006.7
2022-09-12T17:01:44.214Z,1006.6
2022-09-12T17:06:40.507Z,1006.6
2022-09-12T17:11:55.928Z,1006.6
2022-09-12T17:22:11.240Z,1006.7
2022-09-12T17:27:17.734Z,1006.6
2022-09-12T17:32:24.009Z,1006.5
2022-09-12T17:37:30.378Z,1006.5
2022-09-12T17:42:36.963Z,1006.4
2022-09-12T17:48:11.297Z,1006.4
2022-09-12T17:52:49.606Z,1006.5
2022-09-12T17:57:56.003Z,1006.6
2022-09-12T18:03:02.468Z,1006.6
2022-09-12T18:08:12.370Z,1006.4
2022-09-12T18:13:18.767Z,1006.4
2022-09-12T18:18:49.262Z,1006.4
2022-09-12T18:23:31.529Z,1006.3
2022-09-12T18:29:02.628Z,1006.4
2022-09-12T18:33:44.942Z,1006.3
2022-09-12T18:38:55.249Z,1006.5
2022-09-12T18:43:47.799Z,1006.4
2022-09-12T18:49:04.145Z,1006.4
2022-09-12T18:54:10.546Z,1006.4
2022-09-12T18:59:17.065Z,1006.3
2022-09-12T19:04:13.577Z,1006.4
2022-09-12T19:09:28.835Z,1006.4
2022-09-12T19:14:40.218Z,1006.5
2022-09-12T19:20:02.718Z,1006.4
2022-09-12T19:24:48.006Z,1006.4
2022-09-12T19:29:59.397Z,1006.3
2022-09-12T19:34:51.761Z,1006.2
2022-09-12T19:40:32.373Z,1006.2
2022-09-12T19:45:14.695Z,1006.2
2022-09-12T19:50:21.096Z,1006.2
2022-09-12T19:55:27.608Z,1006.2
2022-09-12T20:00:34.017Z,1006.2
2022-09-12T20:05:30.435Z,1006.1
2022-09-12T20:10:46.839Z,1006.1
2022-09-12T20:15:43.269Z,1006.0
2022-09-12T20:21:27.232Z,1005.9
2022-09-12T20:26:09.561Z,1005.9
2022-09-12T20:31:59.068Z,1005.7
2022-09-12T20:42:36.893Z,1005.7
2022-09-12T20:47:19.361Z,1005.6
2022-09-12T20:52:24.678Z,1005.6
2022-09-12T20:57:32.012Z,1005.6
2022-09-12T21:02:28.551Z,1005.6
2022-09-12T21:07:44.781Z,1005.4
2022-09-12T21:12:51.263Z,1005.3
2022-09-12T21:17:57.676Z,1005.2
2022-09-12T21:23:04.022Z,1005.5
2022-09-12T21:28:09.407Z,1005.4
2022-09-12T21:33:06.889Z,1005.3
2022-09-12T21:38:23.172Z,1005.3
2022-09-12T21:43:49.692Z,1005.3
2022-09-12T21:48:36.083Z,1005.3
2022-09-12T21:53:42.616Z,1005.3
2022-09-12T21:58:38.922Z,1005.3
2022-09-12T22:03:55.384Z,1005.3
2022-09-12T22:08:51.673Z,1005.3
2022-09-12T22:13:58.037Z,1005.3
2022-09-12T22:19:04.459Z,1005.3
2022-09-12T22:24:45.107Z,1005.4
2022-09-12T22:29:27.641Z,1005.3
2022-09-12T22:34:34.053Z,1005.2
2022-09-12T22:39:40.479Z,1005.2
2022-09-12T22:44:46.815Z,1005.3
2022-09-12T22:49:53.218Z,1005.3
2022-09-12T22:54:59.786Z,1005.3
2022-09-12T23:00:06.552Z,1005.2
2022-09-12T23:05:13.157Z,1005.2
2022-09-12T23:10:19.879Z,1005.2
2022-09-12T23:15:26.815Z,1005.3
2022-09-12T23:20:33.375Z,1005.3
2022-09-12T23:25:39.842Z,1005.2
2022-09-12T23:30:46.307Z,1005.3
2022-09-12T23:35:52.717Z,1005.1
2022-09-12T23:40:59.105Z,1005.1
2022-09-12T23:46:05.524Z,1005.1
2022-09-12T23:51:12.046Z,1005.0
2022-09-12T23:56:18.369Z,1005.1
